createdAt,value
2023-03-25T00:00:19.161Z,12.90
2023-03-25T00:02:49.357Z,19.48
2023-03-25T00:05:19.431Z,13.20
2023-03-25T00:07:51.148Z,8.65
2023-03-25T00:10:18.699Z,9.50
2023-03-25T00:12:45.765Z,10.23
2023-03-25T00:15:13.896Z,11.77
2023-03-25T00:17:40.920Z,11.48
2023-03-25T00:20:10.213Z,8.98
2023-03-25T00:22:41.495Z,11.15
2023-03-25T00:25:10.586Z,13.57
2023-03-25T00:27:38.354Z,24.75
2023-03-25T00:30:06.677Z,16.00
2023-03-25T00:32:33.914Z,16.70
2023-03-25T00:35:01.094Z,13.00
2023-03-25T00:37:28.487Z,10.70
2023-03-25T00:39:55.490Z,8.52
2023-03-25T00:42:26.605Z,7.60
2023-03-25T00:44:54.512Z,8.20
2023-03-25T00:47:23.197Z,7.13
2023-03-25T00:49:51.804Z,6.85
2023-03-25T00:52:19.652Z,6.55
2023-03-25T00:54:46.634Z,6.40
2023-03-25T00:57:13.873Z,6.22
2023-03-25T00:59:41.014Z,6.38
2023-03-25T01:02:09.374Z,6.72
2023-03-25T01:04:41.525Z,7.15
2023-03-25T01:07:10.035Z,7.65
2023-03-25T01:09:38.895Z,6.32
2023-03-25T01:12:06.078Z,7.13
2023-03-25T01:14:33.154Z,7.28
2023-03-25T01:17:01.054Z,7.65
2023-03-25T01:19:30.232Z,7.68
2023-03-25T01:21:57.265Z,8.40
2023-03-25T01:24:24.229Z,9.18
2023-03-25T01:26:51.289Z,9.10
2023-03-25T01:29:20.621Z,10.20
2023-03-25T01:31:48.277Z,9.52
2023-03-25T01:34:16.007Z,9.63
2023-03-25T01:36:46.717Z,8.65
2023-03-25T01:39:19.224Z,9.48
2023-03-25T01:41:50.602Z,11.02
2023-03-25T01:44:22.189Z,11.25
2023-03-25T01:46:53.302Z,11.75
2023-03-25T01:49:27.023Z,11.25
2023-03-25T01:51:59.722Z,12.93
2023-03-25T01:54:27.628Z,12.50
2023-03-25T01:56:56.187Z,12.35
2023-03-25T01:59:27.257Z,12.77
2023-03-25T02:01:56.735Z,12.75
2023-03-25T02:04:40.557Z,12.20
2023-03-25T02:07:09.169Z,12.73
2023-03-25T02:09:37.475Z,13.30
2023-03-25T02:12:07.658Z,11.50
2023-03-25T02:14:37.380Z,13.40
2023-03-25T02:17:25.623Z,12.45
2023-03-25T02:20:20.274Z,11.02
2023-03-25T02:22:50.313Z,13.10
2023-03-25T02:25:19.310Z,12.52
2023-03-25T02:28:10.240Z,12.68
2023-03-25T02:31:07.978Z,14.40
2023-03-25T02:33:40.576Z,13.55
2023-03-25T02:36:30.321Z,13.65
2023-03-25T02:39:05.827Z,12.90
2023-03-25T02:41:48.063Z,12.25
2023-03-25T02:44:30.414Z,13.07
2023-03-25T02:47:02.120Z,13.02
2023-03-25T02:49:55.250Z,12.18
2023-03-25T02:52:47.095Z,11.15
2023-03-25T02:55:17.919Z,12.15
2023-03-25T02:57:47.731Z,12.25
2023-03-25T03:00:19.019Z,11.90
2023-03-25T03:03:02.424Z,12.57
2023-03-25T03:05:38.735Z,12.07
2023-03-25T03:08:22.897Z,10.70
2023-03-25T03:11:13.723Z,11.80
2023-03-25T03:14:15.746Z,12.88
2023-03-25T03:17:04.274Z,12.30
2023-03-25T03:19:46.641Z,12.20
2023-03-25T03:22:52.961Z,12.68
2023-03-25T03:25:40.522Z,12.52
2023-03-25T03:28:19.798Z,10.48
2023-03-25T03:30:50.142Z,11.75
2023-03-25T03:33:25.715Z,13.02
2023-03-25T03:35:57.681Z,12.98
2023-03-25T03:38:29.792Z,13.75
2023-03-25T03:41:02.117Z,13.68
2023-03-25T03:43:51.681Z,14.15
2023-03-25T03:46:59.037Z,13.05
2023-03-25T03:50:09.988Z,12.98
2023-03-25T03:52:42.407Z,12.73
2023-03-25T03:55:39.263Z,13.05
2023-03-25T03:58:15.412Z,13.25
2023-03-25T04:00:49.981Z,13.43
2023-03-25T04:03:24.697Z,14.68
2023-03-25T04:06:02.160Z,14.45
2023-03-25T04:08:37.862Z,15.38
2023-03-25T04:11:10.381Z,12.98
2023-03-25T04:13:41.561Z,12.68
2023-03-25T04:16:09.303Z,12.80
2023-03-25T04:18:36.379Z,11.40
2023-03-25T04:21:03.867Z,13.38
2023-03-25T04:23:30.952Z,13.00
2023-03-25T04:26:02.955Z,11.43
2023-03-25T04:28:31.867Z,12.00
2023-03-25T04:31:00.704Z,12.25
2023-03-25T04:33:32.197Z,14.57
2023-03-25T04:36:02.014Z,15.25
2023-03-25T04:38:29.778Z,13.52
2023-03-25T04:40:58.366Z,11.43
2023-03-25T04:43:25.460Z,12.90
2023-03-25T04:45:54.924Z,10.70
2023-03-25T04:48:30.612Z,15.05
2023-03-25T04:50:59.533Z,11.18
2023-03-25T04:53:27.347Z,11.93
2023-03-25T04:55:55.318Z,13.18
2023-03-25T04:58:22.559Z,10.57
2023-03-25T05:00:52.011Z,11.15
2023-03-25T05:03:30.093Z,11.05
2023-03-25T05:05:57.047Z,10.73
2023-03-25T05:08:24.037Z,14.63
2023-03-25T05:10:51.171Z,9.75
2023-03-25T05:13:18.598Z,10.80
2023-03-25T05:15:45.631Z,11.38
2023-03-25T05:18:14.899Z,8.45
2023-03-25T05:20:44.163Z,7.25
2023-03-25T05:23:18.102Z,8.82
2023-03-25T05:25:51.198Z,11.05
2023-03-25T05:28:18.647Z,8.45
2023-03-25T05:30:47.232Z,8.90
2023-03-25T05:33:17.099Z,6.20
2023-03-25T05:35:45.096Z,10.63
2023-03-25T05:38:13.655Z,8.77
2023-03-25T05:40:40.728Z,10.57
2023-03-25T05:43:08.201Z,12.77
2023-03-25T05:45:38.096Z,7.10
2023-03-25T05:48:05.636Z,9.43
2023-03-25T05:50:32.672Z,7.03
2023-03-25T05:53:00.165Z,8.10
2023-03-25T05:55:27.931Z,8.02
2023-03-25T05:57:54.932Z,6.85
2023-03-25T06:00:23.374Z,6.30
2023-03-25T06:02:52.314Z,5.85
2023-03-25T06:05:23.871Z,5.45
2023-03-25T06:07:51.239Z,5.93
2023-03-25T06:10:19.244Z,5.55
2023-03-25T06:12:47.698Z,6.63
2023-03-25T06:15:29.074Z,6.18
2023-03-25T06:17:57.237Z,5.60
2023-03-25T06:20:24.329Z,5.22
2023-03-25T06:22:51.717Z,6.28
2023-03-25T06:25:23.631Z,6.30
2023-03-25T06:27:51.210Z,7.03
2023-03-25T06:30:21.361Z,6.10
2023-03-25T06:32:52.755Z,7.28
2023-03-25T06:35:20.708Z,7.68
2023-03-25T06:37:49.296Z,7.07
2023-03-25T06:40:29.643Z,4.85
2023-03-25T06:42:57.390Z,6.32
2023-03-25T06:45:36.356Z,6.28
2023-03-25T06:48:38.649Z,5.63
2023-03-25T06:51:06.033Z,5.65
2023-03-25T06:53:33.118Z,4.90
2023-03-25T06:56:00.203Z,4.53
2023-03-25T06:58:34.792Z,4.55
2023-03-25T07:03:36.762Z,4.30
2023-03-25T07:06:05.493Z,4.80
2023-03-25T07:08:32.966Z,5.28
2023-03-25T07:11:07.913Z,4.55
2023-03-25T07:16:03.378Z,4.80
2023-03-25T07:18:31.009Z,4.63
2023-03-25T07:20:58.395Z,5.00
2023-03-25T07:23:26.210Z,5.25
2023-03-25T07:25:53.686Z,3.97
2023-03-25T07:28:20.912Z,5.15
2023-03-25T07:30:47.942Z,5.38
2023-03-25T07:33:15.544Z,5.68
2023-03-25T07:35:42.542Z,4.93
2023-03-25T07:38:10.159Z,5.07
2023-03-25T07:40:37.542Z,4.95
2023-03-25T07:43:04.577Z,4.30
2023-03-25T07:45:44.716Z,4.93
2023-03-25T07:48:15.028Z,5.97
2023-03-25T07:50:43.564Z,4.85
2023-03-25T07:53:10.996Z,5.75
2023-03-25T07:55:38.310Z,5.25
2023-03-25T07:58:05.363Z,4.55
2023-03-25T08:00:34.592Z,5.40
2023-03-25T08:03:03.770Z,7.65
2023-03-25T08:05:31.590Z,7.82
2023-03-25T08:08:01.204Z,5.70
2023-03-25T08:10:28.299Z,7.53
2023-03-25T08:12:55.533Z,6.63
2023-03-25T08:15:25.006Z,6.25
2023-03-25T08:17:54.712Z,7.65
2023-03-25T08:20:21.734Z,7.95
2023-03-25T08:22:48.762Z,9.70
2023-03-25T08:25:16.019Z,8.57
2023-03-25T08:27:43.442Z,7.18
2023-03-25T08:30:11.636Z,6.30
2023-03-25T08:32:38.704Z,6.72
2023-03-25T08:35:06.650Z,5.97
2023-03-25T08:37:37.929Z,6.80
2023-03-25T08:40:09.392Z,4.45
2023-03-25T08:42:37.758Z,6.43
2023-03-25T08:45:05.914Z,6.28
2023-03-25T08:47:33.055Z,6.57
2023-03-25T08:50:00.033Z,7.13
2023-03-25T08:52:27.027Z,5.10
2023-03-25T08:54:53.963Z,7.78
2023-03-25T08:57:21.189Z,8.45
2023-03-25T08:59:48.196Z,7.90
2023-03-25T09:02:15.613Z,7.18
2023-03-25T09:04:42.889Z,7.70
2023-03-25T09:07:12.553Z,5.95
2023-03-25T09:09:41.081Z,6.63
2023-03-25T09:12:09.131Z,7.47
2023-03-25T09:14:36.332Z,7.75
2023-03-25T09:17:04.599Z,9.02
2023-03-25T09:19:31.801Z,6.35
2023-03-25T09:21:58.736Z,8.10
2023-03-25T09:24:26.106Z,7.28
2023-03-25T09:26:53.086Z,7.63
2023-03-25T09:29:20.107Z,3.70
2023-03-25T09:31:47.249Z,5.28
2023-03-25T09:34:15.997Z,6.28
2023-03-25T09:36:43.230Z,6.30
2023-03-25T09:39:10.453Z,8.02
2023-03-25T09:41:46.363Z,7.60
2023-03-25T09:44:35.955Z,6.32
2023-03-25T09:47:03.904Z,3.90
2023-03-25T09:49:39.337Z,7.10
2023-03-25T09:52:14.931Z,9.00
2023-03-25T09:54:48.686Z,7.88
2023-03-25T09:57:22.789Z,7.65
2023-03-25T09:59:52.602Z,7.15
2023-03-25T10:02:34.808Z,6.57
2023-03-25T10:05:13.406Z,7.03
2023-03-25T10:07:54.231Z,8.98
2023-03-25T10:10:37.032Z,8.20
2023-03-25T10:13:20.129Z,9.50
2023-03-25T10:16:17.900Z,8.30
2023-03-25T10:18:59.636Z,7.93
2023-03-25T10:21:44.570Z,7.63
2023-03-25T10:24:22.877Z,9.20
2023-03-25T10:27:03.794Z,7.45
2023-03-25T10:29:43.962Z,8.65
2023-03-25T10:32:18.753Z,9.00
2023-03-25T10:34:51.564Z,11.25
2023-03-25T10:37:42.200Z,6.45
2023-03-25T10:40:30.255Z,10.45
2023-03-25T10:43:51.574Z,10.02
2023-03-25T10:46:21.334Z,8.02
2023-03-25T10:48:49.146Z,8.57
2023-03-25T10:51:24.644Z,8.30
2023-03-25T10:53:53.316Z,10.45
2023-03-25T10:56:25.555Z,10.70
2023-03-25T10:58:56.288Z,12.35
2023-03-25T11:01:37.237Z,11.63
2023-03-25T11:04:09.420Z,7.50
2023-03-25T11:06:42.301Z,11.20
2023-03-25T11:09:25.729Z,11.68
2023-03-25T11:11:54.255Z,10.45
2023-03-25T11:14:25.548Z,10.93
2023-03-25T11:17:05.815Z,12.13
2023-03-25T11:20:00.802Z,13.98
2023-03-25T11:22:35.265Z,11.05
2023-03-25T11:25:07.784Z,12.02
2023-03-25T11:27:45.789Z,16.02
2023-03-25T11:30:21.768Z,14.35
2023-03-25T11:33:06.618Z,13.18
2023-03-25T11:35:42.484Z,16.10
2023-03-25T11:38:20.985Z,10.30
2023-03-25T11:40:56.487Z,11.32
2023-03-25T11:43:31.059Z,16.25
2023-03-25T11:45:58.209Z,16.77
2023-03-25T11:48:32.069Z,13.55
2023-03-25T11:51:03.014Z,11.07
2023-03-25T11:53:32.987Z,11.40
2023-03-25T11:56:04.812Z,13.10
2023-03-25T11:58:36.209Z,12.18
2023-03-25T12:01:25.623Z,13.05
2023-03-25T12:03:53.212Z,13.55
2023-03-25T12:06:22.607Z,11.75
2023-03-25T12:08:52.019Z,14.70
2023-03-25T12:11:21.952Z,13.88
2023-03-25T12:14:13.164Z,16.52
2023-03-25T12:16:49.003Z,16.35
2023-03-25T12:19:27.369Z,14.20
2023-03-25T12:21:57.202Z,14.95
2023-03-25T12:24:31.672Z,14.35
2023-03-25T12:27:13.839Z,17.23
2023-03-25T12:29:56.952Z,17.00
2023-03-25T12:32:29.845Z,17.08
2023-03-25T12:35:10.946Z,12.88
2023-03-25T12:37:47.548Z,12.85
2023-03-25T12:40:26.234Z,13.73
2023-03-25T12:43:10.232Z,14.73
2023-03-25T12:45:46.618Z,13.23
2023-03-25T12:48:34.946Z,16.38
2023-03-25T12:51:43.590Z,16.92
2023-03-25T12:54:36.436Z,15.57
2023-03-25T12:57:13.474Z,20.02
2023-03-25T13:00:09.317Z,12.50
2023-03-25T13:03:17.302Z,15.55
2023-03-25T13:06:22.606Z,18.48
2023-03-25T13:08:54.022Z,19.35
2023-03-25T13:11:27.754Z,16.67
2023-03-25T13:13:59.676Z,16.02
2023-03-25T13:16:32.155Z,17.80
2023-03-25T13:19:22.799Z,18.23
2023-03-25T13:21:54.128Z,22.85
2023-03-25T13:24:44.520Z,17.35
2023-03-25T13:27:16.142Z,16.45
2023-03-25T13:29:48.624Z,20.05
2023-03-25T13:32:51.084Z,19.73
2023-03-25T13:35:34.324Z,16.63
2023-03-25T13:38:04.866Z,15.68
2023-03-25T13:40:47.589Z,13.13
2023-03-25T13:43:24.789Z,12.95
2023-03-25T13:46:07.416Z,17.50
2023-03-25T13:48:43.690Z,17.35
2023-03-25T13:51:11.167Z,20.13
2023-03-25T13:53:41.096Z,18.42
2023-03-25T13:56:08.794Z,18.88
2023-03-25T13:59:14.394Z,18.60
2023-03-25T14:01:50.392Z,15.55
2023-03-25T14:04:41.844Z,17.23
2023-03-25T14:07:18.618Z,17.02
2023-03-25T14:10:09.038Z,18.17
2023-03-25T14:12:51.349Z,15.98
2023-03-25T14:15:30.346Z,23.35
2023-03-25T14:17:58.313Z,21.98
2023-03-25T14:20:38.105Z,19.20
2023-03-25T14:23:09.303Z,23.02
2023-03-25T14:25:40.832Z,25.67
2023-03-25T14:28:13.118Z,25.30
2023-03-25T14:30:40.277Z,25.27
2023-03-25T14:33:10.621Z,27.50
2023-03-25T14:35:47.379Z,26.40
2023-03-25T14:38:14.432Z,24.02
2023-03-25T14:43:22.379Z,27.48
2023-03-25T14:46:11.279Z,24.25
2023-03-25T14:48:51.948Z,22.48
2023-03-25T14:51:28.582Z,19.77
2023-03-25T14:54:02.229Z,23.80
2023-03-25T14:56:36.560Z,22.17
2023-03-25T14:59:21.424Z,24.95
2023-03-25T15:01:48.638Z,25.90
2023-03-25T15:04:28.317Z,22.10
2023-03-25T15:06:55.830Z,21.50
2023-03-25T15:09:23.417Z,17.75
2023-03-25T15:11:59.993Z,23.42
2023-03-25T15:14:36.657Z,26.05
2023-03-25T15:17:25.045Z,27.05
2023-03-25T15:20:10.704Z,24.13
2023-03-25T15:22:38.764Z,23.50
2023-03-25T15:25:18.764Z,20.35
2023-03-25T15:28:27.914Z,20.58
2023-03-25T15:31:13.303Z,19.45
2023-03-25T15:33:54.226Z,22.50
2023-03-25T15:37:04.381Z,20.38
2023-03-25T15:40:02.577Z,18.83
2023-03-25T15:42:32.620Z,17.83
2023-03-25T15:45:27.475Z,17.58
2023-03-25T15:48:10.918Z,16.25
2023-03-25T15:50:43.688Z,19.95
2023-03-25T15:53:47.410Z,20.90
2023-03-25T15:56:17.682Z,21.88
2023-03-25T15:58:59.589Z,22.23
2023-03-25T16:01:32.928Z,20.08
2023-03-25T16:04:10.888Z,20.90
2023-03-25T16:06:44.854Z,20.50
2023-03-25T16:09:19.541Z,22.63
2023-03-25T16:11:47.277Z,20.80
2023-03-25T16:14:21.415Z,17.60
2023-03-25T16:16:57.277Z,16.80
2023-03-25T16:19:48.991Z,20.05
2023-03-25T16:22:19.742Z,20.48
2023-03-25T16:24:49.070Z,18.67
2023-03-25T16:27:22.849Z,20.17
2023-03-25T16:29:54.654Z,19.73
2023-03-25T16:32:31.562Z,19.00
2023-03-25T16:34:58.643Z,21.83
2023-03-25T16:37:25.929Z,21.50
2023-03-25T16:39:54.762Z,23.58
2023-03-25T16:42:28.207Z,23.52
2023-03-25T16:44:55.575Z,19.98
2023-03-25T16:47:23.516Z,23.48
2023-03-25T16:49:53.716Z,22.23
2023-03-25T16:52:26.620Z,21.90
2023-03-25T16:54:53.538Z,24.05
2023-03-25T16:57:27.430Z,22.70
2023-03-25T16:59:56.028Z,21.77
2023-03-25T17:02:42.642Z,22.15
2023-03-25T17:05:24.816Z,23.90
2023-03-25T17:07:59.966Z,24.02
2023-03-25T17:10:29.870Z,25.52
2023-03-25T17:13:07.601Z,25.63
2023-03-25T17:15:35.592Z,25.45
2023-03-25T17:18:07.356Z,21.15
2023-03-25T17:20:38.449Z,23.73
2023-03-25T17:23:17.372Z,23.35
2023-03-25T17:25:56.297Z,23.08
2023-03-25T17:28:33.588Z,24.52
2023-03-25T17:31:01.480Z,19.15
2023-03-25T17:33:39.904Z,23.60
2023-03-25T17:36:12.738Z,24.73
2023-03-25T17:38:47.891Z,23.77
2023-03-25T17:41:17.484Z,23.27
2023-03-25T17:43:50.150Z,22.95
2023-03-25T17:46:35.496Z,22.77
2023-03-25T17:49:11.671Z,26.38
2023-03-25T17:51:40.771Z,27.42
2023-03-25T17:54:07.836Z,30.75
2023-03-25T17:56:38.551Z,31.35
2023-03-25T17:59:10.716Z,28.83
2023-03-25T18:01:37.860Z,21.63
2023-03-25T18:04:05.641Z,18.70
2023-03-25T18:06:32.639Z,19.98
2023-03-25T18:08:59.733Z,20.27
2023-03-25T18:11:26.886Z,19.95
2023-03-25T18:13:54.462Z,19.45
2023-03-25T18:16:22.423Z,22.70
2023-03-25T18:18:49.697Z,26.60
2023-03-25T18:21:17.731Z,26.05
2023-03-25T18:23:48.662Z,25.63
2023-03-25T18:26:18.615Z,27.08
2023-03-25T18:28:46.842Z,25.75
2023-03-25T18:31:17.522Z,25.50
2023-03-25T18:33:50.063Z,25.65
2023-03-25T18:36:18.551Z,27.90
2023-03-25T18:38:46.140Z,27.13
2023-03-25T18:41:17.592Z,27.42
2023-03-25T18:43:44.939Z,26.55
2023-03-25T18:46:14.247Z,26.58
2023-03-25T18:48:41.533Z,24.80
2023-03-25T18:51:13.471Z,24.13
2023-03-25T18:53:40.903Z,26.67
2023-03-25T18:56:08.754Z,27.73
2023-03-25T18:58:36.494Z,24.80
2023-03-25T19:01:06.369Z,27.17
2023-03-25T19:03:39.882Z,29.35
2023-03-25T19:06:09.985Z,29.52
2023-03-25T19:08:37.481Z,29.55
2023-03-25T19:11:19.179Z,32.03
2023-03-25T19:13:47.969Z,30.17
2023-03-25T19:16:15.106Z,27.15
2023-03-25T19:18:42.185Z,24.92
2023-03-25T19:21:10.004Z,26.85
2023-03-25T19:23:37.799Z,27.95
2023-03-25T19:26:05.091Z,28.02
2023-03-25T19:28:32.070Z,26.23
2023-03-25T19:31:00.926Z,27.05
2023-03-25T19:33:31.389Z,27.67
2023-03-25T19:36:01.934Z,25.95
2023-03-25T19:38:30.617Z,26.60
2023-03-25T19:41:04.931Z,27.05
2023-03-25T19:43:32.112Z,23.17
2023-03-25T19:45:59.951Z,24.45
2023-03-25T19:48:29.812Z,24.20
2023-03-25T19:50:57.596Z,25.83
2023-03-25T19:53:26.541Z,24.25
2023-03-25T19:55:54.967Z,26.73
2023-03-25T19:58:23.386Z,25.65
2023-03-25T20:00:51.623Z,25.30
2023-03-25T20:03:22.674Z,29.95
2023-03-25T20:05:56.517Z,28.15
2023-03-25T20:08:24.110Z,31.98
2023-03-25T20:10:51.370Z,32.83
2023-03-25T20:13:18.729Z,31.88
2023-03-25T20:15:46.041Z,27.65
2023-03-25T20:18:13.125Z,28.40
2023-03-25T20:20:41.123Z,27.67
2023-03-25T20:23:08.690Z,28.30
2023-03-25T20:25:36.027Z,29.52
2023-03-25T20:28:03.047Z,28.73
2023-03-25T20:30:32.194Z,29.80
2023-03-25T20:32:59.166Z,31.05
2023-03-25T20:35:26.308Z,30.15
2023-03-25T20:37:53.466Z,27.65
2023-03-25T20:40:25.385Z,29.50
2023-03-25T20:42:58.927Z,30.60
2023-03-25T20:45:29.478Z,31.35
2023-03-25T20:47:57.827Z,31.27
2023-03-25T20:50:25.394Z,30.80
2023-03-25T20:52:52.903Z,29.98
2023-03-25T20:55:20.032Z,32.42
2023-03-25T20:57:47.144Z,32.15
2023-03-25T21:00:14.707Z,30.42
2023-03-25T21:02:42.660Z,30.05
2023-03-25T21:05:09.985Z,30.45
2023-03-25T21:07:37.870Z,31.08
2023-03-25T21:10:05.341Z,31.40
2023-03-25T21:12:42.515Z,32.33
2023-03-25T21:15:10.843Z,31.35
2023-03-25T21:17:38.282Z,30.33
2023-03-25T21:20:07.442Z,32.88
2023-03-25T21:22:35.218Z,29.60
2023-03-25T21:25:02.248Z,33.10
2023-03-25T21:27:39.069Z,36.45
2023-03-25T21:30:09.801Z,34.22
2023-03-25T21:32:38.360Z,34.70
2023-03-25T21:35:06.192Z,34.60
2023-03-25T21:37:37.965Z,34.03
2023-03-25T21:40:08.337Z,33.63
2023-03-25T21:42:38.546Z,35.40
2023-03-25T21:45:07.977Z,34.13
2023-03-25T21:47:36.441Z,32.13
2023-03-25T21:50:10.119Z,29.48
2023-03-25T21:52:38.776Z,29.95
2023-03-25T21:55:06.405Z,30.65
2023-03-25T21:57:39.098Z,31.92
2023-03-25T22:00:09.046Z,33.55
2023-03-25T22:02:39.016Z,36.58
2023-03-25T22:05:06.662Z,34.00
2023-03-25T22:07:33.672Z,34.05
2023-03-25T22:10:02.376Z,34.80
2023-03-25T22:12:30.152Z,31.02
2023-03-25T22:14:57.404Z,32.20
2023-03-25T22:17:24.641Z,31.88
2023-03-25T22:19:51.641Z,32.17
2023-03-25T22:22:21.632Z,31.85
2023-03-25T22:24:49.583Z,30.35
2023-03-25T22:27:16.868Z,32.95
2023-03-25T22:29:43.876Z,31.40
2023-03-25T22:32:11.079Z,29.90
2023-03-25T22:34:39.120Z,30.55
2023-03-25T22:37:06.736Z,30.27
2023-03-25T22:39:34.030Z,30.33
2023-03-25T22:42:01.291Z,32.33
2023-03-25T22:44:28.392Z,33.08
2023-03-25T22:46:55.666Z,34.33
2023-03-25T22:49:23.025Z,35.35
2023-03-25T22:51:51.194Z,34.53
2023-03-25T22:54:18.480Z,39.17
2023-03-25T22:56:45.822Z,40.05
2023-03-25T22:59:14.475Z,39.78
2023-03-25T23:01:42.333Z,40.10
2023-03-25T23:04:09.655Z,40.55
2023-03-25T23:06:37.442Z,40.83
2023-03-25T23:09:08.515Z,40.10
2023-03-25T23:11:37.317Z,37.60
2023-03-25T23:14:13.318Z,39.20
2023-03-25T23:16:42.067Z,40.47
2023-03-25T23:19:10.260Z,42.83
2023-03-25T23:21:38.467Z,44.10
2023-03-25T23:24:05.838Z,44.33
2023-03-25T23:26:39.515Z,46.00
2023-03-25T23:29:09.270Z,46.63
2023-03-25T23:31:38.221Z,46.70
2023-03-25T23:34:07.367Z,42.53
2023-03-25T23:36:36.676Z,45.15
2023-03-25T23:39:07.438Z,45.70
2023-03-25T23:41:35.493Z,47.28
2023-03-25T23:44:03.613Z,44.70
2023-03-25T23:46:31.055Z,43.17
2023-03-25T23:49:04.192Z,43.83
2023-03-25T23:51:35.308Z,44.15
2023-03-25T23:54:03.907Z,45.92
2023-03-25T23:56:31.061Z,43.10
2023-03-25T23:58:58.986Z,46.28
